This is the latest recevied weather packets stored in our database for station/object M0SDM. If no packets are shown the sender has not sent any weather packets the latest 1 day(s).
| Time | Temp. | Humidity | Pressure | Rain* | Wind** | Luminosity | Snow |
|---|---|---|---|---|---|---|---|
| 1777983021 | 15.56° C | 57% | 1010.9 hPa | 0 mm | 0 m/s | - | - |
| 1777982121 | 15.56° C | 57% | 1010.9 hPa | 0 mm | 0 m/s | - | - |
| 1777981221 | 15.56° C | 59% | 1011.2 hPa | 0 mm | 0.45 m/s, 202° | - | - |
| 1777980321 | 16.11° C | 56% | 1011.5 hPa | 0 mm | 0 m/s | - | - |
| 1777979421 | 15.56° C | 60% | 1011.7 hPa | 0 mm | 0.45 m/s, 15° | - | - |
| 1777978521 | 15° C | 61% | 1011.9 hPa | 0 mm | 0.45 m/s, 218° | - | - |
| 1777977621 | 15° C | 61% | 1012.1 hPa | 0 mm | 0 m/s | - | - |
| 1777976721 | 14.44° C | 66% | 1012.4 hPa | 0 mm | 0.45 m/s, 68° | - | - |
| 1777975821 | 14.44° C | 67% | 1012.5 hPa | 0 mm | 0 m/s | - | - |
| 1777974921 | 14.44° C | 68% | 1012.5 hPa | 0 mm | 0 m/s | - | - |
| 1777974021 | 13.89° C | 69% | 1012.7 hPa | 0 mm | 0.89 m/s, 136° | - | - |
| 1777973121 | 14.44° C | 71% | 1012.9 hPa | 0 mm | 0.45 m/s, 168° | - | - |
| 1777972221 | 13.33° C | 73% | 1013.1 hPa | 0 mm | 0.45 m/s, 129° | - | - |
| 1777971321 | 12.78° C | 74% | 1013.4 hPa | 0 mm | 0.45 m/s, 158° | - | - |
| 1777970421 | 11.67° C | 81% | 1013.4 hPa | 0 mm | 0 m/s | - | - |
| 1777969521 | 10.56° C | 84% | 1013.3 hPa | 0 mm | 0 m/s | - | - |
| 1777968621 | 10° C | 86% | 1013.5 hPa | 0 mm | 0 m/s | - | - |
| 1777967721 | 10° C | 85% | 1013.4 hPa | 0 mm | 0 m/s | - | - |
| 1777966821 | 9.44° C | 88% | 1013.5 hPa | 0 mm | 0 m/s | - | - |
| 1777965921 | 9.44° C | 89% | 1013.7 hPa | 0 mm | 0 m/s | - | - |
| 1777965021 | 8.89° C | 95% | 1013.9 hPa | 0 mm | 0 m/s | - | - |
| 1777964121 | 8.33° C | 97% | 1014.2 hPa | 0 mm | 0 m/s | - | - |
| 1777963221 | 8.33° C | 98% | 1014.1 hPa | 0 mm | 0 m/s | - | - |
* Rain latest hour (hover to see other rain measurements)
** Current wind speed in m/s (hover to see current wind gust speed)